WetterOnline ( https://www.wetteronline.de )

Wetter aktuell Esch

Aktuelles Wetter: Salzburg Flughafen (450m)

6-stündlich | Neueste Meldungen
Ortszeit Temperatur Wetter
Di, 19.01. 1:00 -1.0° C bewölkt
Mo, 18.01. 19:00 1.7° C bedeckt
Mo, 18.01. 13:00 1.1° C leichter Schneefall
Mo, 18.01. 7:00 1.6° C leichter Schneefall
Mo, 18.01. 1:00 -3.0° C leichter Schneefall
So, 17.01. 19:00 -3.4° C leichter Schneefall
So, 17.01. 13:00 -4.1° C leichter Schneefall
So, 17.01. 7:00 -6.3° C bedeckt
Ortszeit Temperatur Wetter
Di, 19.01. 4:00 -2.5° C wolkig
Di, 19.01. 3:50 -2° C bewölkt
Di, 19.01. 3:20 -3° C -
Di, 19.01. 3:00 -1.9° C fast wolkenlos
Di, 19.01. 2:50 -2° C leicht bewölkt
Di, 19.01. 2:20 -2° C leicht bewölkt
Di, 19.01. 2:00 -1.2° C leicht bewölkt
Di, 19.01. 1:20 -1° C bewölkt
Di, 19.01. 1:00 -1.0° C bewölkt
Ortszeit Relative Feuchte Sichtweite
Di, 19.01. 1:00 86% 50 km
Mo, 18.01. 19:00 71% 70 km
Mo, 18.01. 13:00 85% 9 km
Mo, 18.01. 7:00 84% 29 km
Mo, 18.01. 1:00 98% 3.0 km
So, 17.01. 19:00 93% 10 km
So, 17.01. 13:00 88% 8 km
So, 17.01. 7:00 82% 40 km
Ortszeit Relative Feuchte Sichtweite
Di, 19.01. 4:00 87% 60 km
Di, 19.01. 3:50 86% >10 km
Di, 19.01. 3:20 93% >10 km
Di, 19.01. 3:00 85% 55 km
Di, 19.01. 2:50 86% >10 km
Di, 19.01. 2:20 86% >10 km
Di, 19.01. 2:00 85% 55 km
Di, 19.01. 1:20 86% >10 km
Di, 19.01. 1:00 86% 50 km
Ortszeit Niederschlagsmenge Niederschlagsart
Di, 19.01. 1:00 keine Meldung -
Mo, 18.01. 19:00 2 l/m2 in 12 Std. -
Mo, 18.01. 13:00 2 l/m2 in 6 Std. -
Mo, 18.01. 7:00 2 l/m2 in 12 Std. -
Mo, 18.01. 1:00 0.7 l/m2 in 6 Std. -
So, 17.01. 19:00 1 l/m2 in 12 Std. -
So, 17.01. 13:00 1 l/m2 in 6 Std. -
So, 17.01. 7:00 keine Meldung -
Ortszeit Niederschlagsmenge Niederschlagsart
Di, 19.01. 4:00 0.0 l/m2 in 1 Std. -
Di, 19.01. 3:50 keine Meldung -
Di, 19.01. 3:20 keine Meldung -
Di, 19.01. 3:00 0.0 l/m2 in 1 Std. -
Di, 19.01. 2:50 keine Meldung -
Di, 19.01. 2:20 keine Meldung -
Di, 19.01. 2:00 0.0 l/m2 in 1 Std. -
Di, 19.01. 1:20 keine Meldung -
Di, 19.01. 1:00 0.0 l/m2 in 1 Std. -
Ortszeit Stärke Spitze Richtung
km/h Bft. km/h Grad Sektor
Di, 19.01. 1:00 7 2 - - -
Mo, 18.01. 19:00 18 3 - 280° W
Mo, 18.01. 13:00 25 4 - 290° W
Mo, 18.01. 7:00 11 2 - 290° W
Mo, 18.01. 1:00 7 2 - - -
So, 17.01. 19:00 4 1 - - -
So, 17.01. 13:00 7 2 - - -
So, 17.01. 7:00 11 2 - - -
Ortszeit Stärke Spitze Richtung
km/h Bft. km/h Grad Sektor
Di, 19.01. 4:00 14 3 - 170° S
Di, 19.01. 3:50 15 3 - 170° S
Di, 19.01. 3:20 11 2 - 150° SO
Di, 19.01. 3:00 18 3 - 170° S
Di, 19.01. 2:50 17 3 - 170° S
Di, 19.01. 2:20 13 3 - 170° S
Di, 19.01. 2:00 11 2 - - -
Di, 19.01. 1:20 11 2 - 160° S
Di, 19.01. 1:00 7 2 - - -
Ortszeit Untergrenze Bedeckung Gattung
total tief tief mittel hoch
Di, 19.01. 1:00 1380 m 8/8 5/8 - - -
Mo, 18.01. 19:00 540 m 8/8 6/8 Sc - -
Mo, 18.01. 13:00 180 m 8/8 5/8 St - -
Mo, 18.01. 7:00 300 m 8/8 5/8 St - -
Mo, 18.01. 1:00 360 m 8/8 7/8 - - -
So, 17.01. 19:00 300 m 8/8 6/8 St - -
So, 17.01. 13:00 270 m 8/8 6/8 St - -
So, 17.01. 7:00 900 m 8/8 6/8 Sc - -
Ortszeit Bedeckungsgrad in Achtel und Wolkenuntergrenze
Di, 19.01. 4:00 5(2100m)
Di, 19.01. 3:50 5-7(2100m)
Di, 19.01. 3:20 keine Wolken(unter 1500 m)
Di, 19.01. 3:00 1(1320m)
Di, 19.01. 2:50 1-2(1320m)
Di, 19.01. 2:20 1-2(1260m)
Di, 19.01. 2:00 1(1200m) 3(1320m)
Di, 19.01. 1:20 1-2(1440m) 5-7(1500m)
Di, 19.01. 1:00 1(1380m) 3(1800m) 5(2100m)
Ortszeit Luftdruck NN (hPa) Tendenz (hPa in 3 Std.)
Di, 19.01. 1:00 1027 - 0,2
Mo, 18.01. 19:00 1027 + 0,2
Mo, 18.01. 13:00 1026 + 0,7
Mo, 18.01. 7:00 1025 + 0,5
Mo, 18.01. 1:00 1025 + 0,3
So, 17.01. 19:00 1023 + 2,0
So, 17.01. 13:00 1020 + 0,2
So, 17.01. 7:00 1020 - 0,6
Ortszeit Luftdruck NN (hPa) Tendenz (hPa in 3 Std.)
Di, 19.01. 4:00 1026 - 1,1
Di, 19.01. 3:50 1023 keine Meldung
Di, 19.01. 3:20 1023 keine Meldung
Di, 19.01. 3:00 1026 - 1,2
Di, 19.01. 2:50 1023 keine Meldung
Di, 19.01. 2:20 1023 keine Meldung
Di, 19.01. 2:00 1027 - 0,8
Di, 19.01. 1:20 1024 keine Meldung
Di, 19.01. 1:00 1027 - 0,2
Ortszeit Schneehöhe (cm)
Di, 19.01. 1:00 8
Mo, 18.01. 19:00 -
Mo, 18.01. 13:00 -
Mo, 18.01. 7:00 10
Mo, 18.01. 1:00 9
So, 17.01. 19:00 -
So, 17.01. 13:00 -
So, 17.01. 7:00 5
Ortszeit Schneehöhe (cm)
Di, 19.01. 4:00 8
Di, 19.01. 3:50 -
Di, 19.01. 3:20 -
Di, 19.01. 3:00 8
Di, 19.01. 2:50 -
Di, 19.01. 2:20 -
Di, 19.01. 2:00 8
Di, 19.01. 1:20 -
Di, 19.01. 1:00 8
Link zu dieser Seite / Seite empfehlen

Das Wetter in ...